Time;durP1;ratioP1;P1;durP2;ratioP2;P2;SDS_P1;SDS_P2;PMS_P1;PMS_P2;Temp;Humidity;BMP_temperature;BMP_pressure;BME280_temperature;BME280_humidity;BME280_pressure;Samples;Min_cycle;Max_cycle;Signal;HPM_P1;HPM_P2
2021/06/05 00:00:09;;;;;;;;;;;17.60;99.90;;;;;;5114096;28;19990;-74
2021/06/05 00:02:35;;;;;;;;;;;17.60;99.90;;;;;;5113101;28;19904;-75
2021/06/05 00:05:01;;;;;;;;;;;17.60;99.90;;;;;;5114142;28;19910;-75
2021/06/05 00:07:27;;;;;;;;;;;17.50;99.90;;;;;;5113622;28;19912;-74
2021/06/05 00:09:53;;;;;;;;;;;17.50;99.90;;;;;;5113125;28;19915;-74
2021/06/05 00:12:20;;;;;;;;;;;17.50;99.90;;;;;;5113901;28;20002;-74
2021/06/05 00:14:45;;;;;;;;;;;17.50;99.90;;;;;;5113713;28;19907;-75
2021/06/05 00:17:11;;;;;;;;;;;17.50;99.90;;;;;;5113095;28;20400;-75
2021/06/05 00:19:36;;;;;;;;;;;17.40;99.90;;;;;;5113888;28;19975;-75
2021/06/05 00:22:02;;;;;;;;;;;17.30;99.90;;;;;;5113815;28;20304;-75
2021/06/05 00:24:27;;;;;;;;;;;17.30;99.90;;;;;;5112969;28;19978;-75
2021/06/05 00:26:53;;;;;;;;;;;17.30;99.90;;;;;;5113610;28;19912;-75
2021/06/05 00:29:19;;;;;;;;;;;17.20;99.90;;;;;;5113060;28;19904;-75
2021/06/05 00:31:44;;;;;;;;;;;17.20;99.90;;;;;;5113724;28;20347;-75
2021/06/05 00:34:10;;;;;;;;;;;17.20;99.90;;;;;;5113533;28;20285;-75
2021/06/05 00:36:36;;;;;;;;;;;17.20;99.90;;;;;;5112778;28;19903;-75
2021/06/05 00:39:01;;;;;;;;;;;17.20;99.90;;;;;;5113625;28;19903;-75
2021/06/05 00:41:27;;;;;;;;;;;17.10;99.90;;;;;;5113442;28;20378;-76
2021/06/05 00:43:54;;;;;;;;;;;17.10;99.90;;;;;;5112883;28;19903;-75
2021/06/05 00:46:21;;;;;;;;;;;17.00;99.90;;;;;;5113168;28;19925;-75
2021/06/05 00:48:46;;;;;;;;;;;17.00;99.90;;;;;;5113445;28;19910;-75
2021/06/05 00:51:12;;;;;;;;;;;17.00;99.90;;;;;;5112291;28;19904;-75
2021/06/05 00:53:38;;;;;;;;;;;17.00;99.90;;;;;;5113185;28;19904;-76
2021/06/05 00:56:05;;;;;;;;;;;16.90;99.90;;;;;;5113589;28;19934;-74
2021/06/05 00:58:31;;;;;;;;;;;16.90;99.90;;;;;;5112866;28;19911;-74
2021/06/05 01:01:17;;;;;;;;;;;16.80;99.90;;;;;;5114953;28;19904;-75
2021/06/05 01:03:43;;;;;;;;;;;16.70;99.90;;;;;;5113343;28;19903;-76
2021/06/05 01:06:27;;;;;;;;;;;16.70;99.90;;;;;;5094122;28;19919;-76
2021/06/05 01:08:58;;;;;;;;;;;16.60;99.90;;;;;;5113074;28;19926;-76
2021/06/05 01:11:31;;;;;;;;;;;16.60;99.90;;;;;;5112178;28;19910;-76
2021/06/05 01:14:16;;;;;;;;;;;16.60;99.90;;;;;;5113473;28;19918;-76
2021/06/05 01:16:45;;;;;;;;;;;16.60;99.90;;;;;;5113306;28;19903;-75
2021/06/05 01:19:18;;;;;;;;;;;16.60;99.90;;;;;;5112534;28;19904;-75
2021/06/05 01:21:49;;;;;;;;;;;16.60;99.90;;;;;;5113271;28;19956;-75
2021/06/05 01:24:21;;;;;;;;;;;16.60;99.90;;;;;;5113135;28;19914;-74
2021/06/05 01:26:55;;;;;;;;;;;16.60;99.90;;;;;;5112495;28;19912;-76
2021/06/05 01:29:33;;;;;;;;;;;16.60;99.90;;;;;;5113001;28;19908;-74
2021/06/05 01:32:00;;;;;;;;;;;16.60;99.90;;;;;;5113343;28;19915;-76
2021/06/05 01:34:27;;;;;;;;;;;16.60;99.90;;;;;;5112025;28;20363;-74
2021/06/05 01:36:53;;;;;;;;;;;16.60;99.90;;;;;;5114167;28;19904;-75
2021/06/05 01:39:38;;;;;;;;;;;16.50;99.90;;;;;;5116707;28;19904;-75
2021/06/05 01:42:08;;;;;;;;;;;16.50;99.90;;;;;;5116762;28;19904;-75
2021/06/05 01:44:34;;;;;;;;;;;16.50;99.90;;;;;;5116559;28;19922;-75
2021/06/05 01:47:00;;;;;;;;;;;16.50;99.90;;;;;;5115653;28;20268;-75
2021/06/05 01:49:26;;;;;;;;;;;16.40;99.90;;;;;;5116439;28;19910;-74
2021/06/05 01:51:58;;;;;;;;;;;16.40;99.90;;;;;;5116483;28;19903;-75
2021/06/05 01:54:29;;;;;;;;;;;16.40;99.90;;;;;;5115832;28;19904;-76
2021/06/05 01:56:57;;;;;;;;;;;16.40;99.90;;;;;;5116234;28;19904;-75
2021/06/05 01:59:22;;;;;;;;;;;16.30;99.90;;;;;;5116021;28;19908;-75
2021/06/05 02:01:48;;;;;;;;;;;16.40;99.90;;;;;;5115386;28;19956;-75
2021/06/05 02:04:14;;;;;;;;;;;16.30;99.90;;;;;;5116265;28;19999;-75
2021/06/05 02:06:40;;;;;;;;;;;16.30;99.90;;;;;;5115898;28;19912;-75
2021/06/05 02:09:07;;;;;;;;;;;16.30;99.90;;;;;;5115485;28;19950;-75
2021/06/05 02:11:36;;;;;;;;;;;16.30;99.90;;;;;;5115973;28;20263;-75
2021/06/05 02:14:13;;;;;;;;;;;16.30;99.90;;;;;;5115628;28;19908;-74
2021/06/05 02:16:41;;;;;;;;;;;16.30;99.90;;;;;;5115330;28;19927;-74
2021/06/05 02:19:12;;;;;;;;;;;16.40;99.90;;;;;;5116002;28;19904;-76
2021/06/05 02:21:40;;;;;;;;;;;16.40;99.90;;;;;;5116205;28;20355;-76
2021/06/05 02:24:08;;;;;;;;;;;16.40;99.90;;;;;;5115644;28;19907;-75
2021/06/05 02:26:35;;;;;;;;;;;16.40;99.90;;;;;;5115737;28;19912;-75
2021/06/05 02:29:02;;;;;;;;;;;16.40;99.90;;;;;;5114920;28;19903;-76
2021/06/05 02:31:28;;;;;;;;;;;16.40;99.90;;;;;;5115572;28;19907;-75
2021/06/05 02:33:54;;;;;;;;;;;16.40;99.90;;;;;;5115596;28;19956;-75
2021/06/05 02:36:20;;;;;;;;;;;16.50;99.90;;;;;;5114874;28;19903;-75
2021/06/05 02:38:46;;;;;;;;;;;16.50;99.90;;;;;;5115570;28;19903;-76
2021/06/05 02:41:14;;;;;;;;;;;16.40;99.90;;;;;;5115520;28;19904;-75
2021/06/05 02:43:41;;;;;;;;;;;16.50;99.90;;;;;;5115146;28;19911;-76
2021/06/05 02:46:09;;;;;;;;;;;16.50;99.90;;;;;;5115091;28;20275;-76
2021/06/05 02:48:39;;;;;;;;;;;16.50;99.90;;;;;;5114149;28;19908;-76
2021/06/05 02:51:04;;;;;;;;;;;16.60;99.90;;;;;;5114370;28;19911;-76
2021/06/05 02:53:30;;;;;;;;;;;16.50;99.90;;;;;;5115500;28;20378;-75
2021/06/05 02:55:55;;;;;;;;;;;16.60;99.90;;;;;;5115170;28;19903;-75
2021/06/05 02:58:21;;;;;;;;;;;16.60;99.90;;;;;;5114408;28;19945;-75
2021/06/05 03:00:47;;;;;;;;;;;16.60;99.90;;;;;;5114892;28;20023;-74
2021/06/05 03:03:14;;;;;;;;;;;16.60;99.90;;;;;;5115178;28;19903;-75
2021/06/05 03:05:40;;;;;;;;;;;16.60;99.90;;;;;;5114076;28;19910;-75
2021/06/05 03:08:16;;;;;;;;;;;16.60;99.90;;;;;;5115411;28;19908;-77
2021/06/05 03:10:42;;;;;;;;;;;16.50;99.90;;;;;;5115317;28;19943;-76
2021/06/05 03:13:09;;;;;;;;;;;16.60;99.90;;;;;;5114060;28;19949;-74
2021/06/05 03:15:34;;;;;;;;;;;16.50;99.90;;;;;;5114783;28;19910;-74
2021/06/05 03:18:00;;;;;;;;;;;16.50;99.90;;;;;;5113966;28;19903;-74
2021/06/05 03:20:28;;;;;;;;;;;16.50;99.90;;;;;;5114460;28;19903;-76
2021/06/05 03:22:55;;;;;;;;;;;16.50;99.90;;;;;;5114688;28;19947;-75
2021/06/05 03:25:20;;;;;;;;;;;16.50;99.90;;;;;;5113888;28;19907;-75
2021/06/05 03:27:46;;;;;;;;;;;16.50;99.90;;;;;;5114527;28;19919;-75
2021/06/05 03:30:12;;;;;;;;;;;16.50;99.90;;;;;;5114374;28;19986;-75
2021/06/05 03:32:37;;;;;;;;;;;16.60;99.90;;;;;;5113340;28;19908;-75
2021/06/05 03:35:03;;;;;;;;;;;16.50;99.90;;;;;;5113997;28;19908;-75
2021/06/05 03:37:28;;;;;;;;;;;16.50;99.90;;;;;;5114259;28;19927;-75
2021/06/05 03:39:54;;;;;;;;;;;16.50;99.90;;;;;;5113434;28;20384;-75
2021/06/05 03:42:19;;;;;;;;;;;16.50;99.90;;;;;;5113989;28;19910;-75
2021/06/05 03:44:45;;;;;;;;;;;16.50;99.90;;;;;;5113787;28;19915;-75
2021/06/05 03:47:10;;;;;;;;;;;16.50;99.90;;;;;;5113284;28;19926;-75
2021/06/05 03:49:36;;;;;;;;;;;16.50;99.90;;;;;;5113917;28;20335;-75
2021/06/05 03:52:01;;;;;;;;;;;16.50;99.90;;;;;;5114050;28;19904;-75
2021/06/05 03:54:27;;;;;;;;;;;16.50;99.90;;;;;;5113396;28;19910;-75
2021/06/05 03:56:52;;;;;;;;;;;16.40;99.90;;;;;;5114000;28;19908;-76
2021/06/05 03:59:18;;;;;;;;;;;16.40;99.90;;;;;;5113906;28;19948;-75
2021/06/05 04:01:44;;;;;;;;;;;16.40;99.90;;;;;;5112875;28;20347;-76
2021/06/05 04:04:09;;;;;;;;;;;16.30;99.90;;;;;;5113649;28;19904;-75
2021/06/05 04:06:35;;;;;;;;;;;16.30;99.90;;;;;;5113572;28;19927;-76
2021/06/05 04:09:00;;;;;;;;;;;16.30;99.90;;;;;;5113032;28;19911;-76
2021/06/05 04:11:28;;;;;;;;;;;16.30;99.90;;;;;;5113818;28;19943;-75
2021/06/05 04:13:54;;;;;;;;;;;16.20;99.90;;;;;;5113804;28;19910;-76
2021/06/05 04:16:22;;;;;;;;;;;16.20;99.90;;;;;;5112981;28;20273;-76
2021/06/05 04:18:47;;;;;;;;;;;16.20;99.90;;;;;;5113689;28;19911;-75
2021/06/05 04:21:15;;;;;;;;;;;16.20;99.90;;;;;;5113607;28;19913;-75
2021/06/05 04:23:40;;;;;;;;;;;16.20;99.90;;;;;;5113143;28;20405;-75
2021/06/05 04:26:06;;;;;;;;;;;16.20;99.90;;;;;;5113588;28;20010;-75
2021/06/05 04:28:33;;;;;;;;;;;16.30;99.90;;;;;;5112811;28;19910;-75
2021/06/05 04:30:58;;;;;;;;;;;16.30;99.90;;;;;;5113344;28;19940;-75
2021/06/05 04:33:25;;;;;;;;;;;16.30;99.90;;;;;;5113616;28;19911;-75
2021/06/05 04:35:52;;;;;;;;;;;16.20;99.90;;;;;;5112913;28;19926;-76
2021/06/05 04:38:18;;;;;;;;;;;16.20;99.90;;;;;;5113714;28;19904;-75
2021/06/05 04:40:43;;;;;;;;;;;16.30;99.90;;;;;;5113464;28;20015;-76
2021/06/05 04:43:10;;;;;;;;;;;16.30;99.90;;;;;;5112840;28;19910;-75
2021/06/05 04:45:36;;;;;;;;;;;16.30;99.90;;;;;;5113103;28;19916;-75
2021/06/05 04:48:05;;;;;;;;;;;16.30;99.90;;;;;;5113707;28;19919;-75
2021/06/05 04:50:31;;;;;;;;;;;16.30;99.90;;;;;;5094492;28;19904;-75
2021/06/05 04:52:57;;;;;;;;;;;16.40;99.90;;;;;;5113560;28;20278;-76
2021/06/05 04:55:22;;;;;;;;;;;16.40;99.90;;;;;;5113608;28;19911;-76
2021/06/05 04:57:51;;;;;;;;;;;16.40;99.90;;;;;;5113269;28;19908;-76
2021/06/05 05:00:17;;;;;;;;;;;16.40;99.90;;;;;;5117083;28;19903;-75
2021/06/05 05:02:43;;;;;;;;;;;16.40;99.90;;;;;;5114483;28;19904;-75
2021/06/05 05:05:09;;;;;;;;;;;16.40;99.90;;;;;;5112591;28;19904;-75
2021/06/05 05:07:34;;;;;;;;;;;16.40;99.90;;;;;;5113310;28;19960;-77
2021/06/05 05:10:00;;;;;;;;;;;16.40;99.90;;;;;;5113518;28;19938;-75
2021/06/05 05:12:26;;;;;;;;;;;16.50;99.90;;;;;;5114948;28;19904;-75
2021/06/05 05:14:54;;;;;;;;;;;16.50;99.90;;;;;;5118096;28;19942;-75
2021/06/05 05:17:22;;;;;;;;;;;16.50;99.90;;;;;;5117394;28;20248;-75
2021/06/05 05:19:48;;;;;;;;;;;16.60;99.90;;;;;;5116170;28;19910;-76
2021/06/05 05:22:13;;;;;;;;;;;16.60;99.90;;;;;;5116902;28;19903;-76
2021/06/05 05:24:39;;;;;;;;;;;16.60;99.90;;;;;;5115964;28;20028;-76
2021/06/05 05:27:04;;;;;;;;;;;16.60;99.90;;;;;;5116809;28;19926;-76
2021/06/05 05:29:30;;;;;;;;;;;16.70;99.90;;;;;;5116879;28;20363;-76
2021/06/05 05:31:55;;;;;;;;;;;16.70;99.90;;;;;;5115887;28;20740;-76
2021/06/05 05:34:21;;;;;;;;;;;16.80;99.90;;;;;;5116881;28;19978;-76
2021/06/05 05:36:46;;;;;;;;;;;16.90;99.90;;;;;;5116554;28;19903;-76
2021/06/05 05:39:14;;;;;;;;;;;17.00;99.90;;;;;;5115704;28;20090;-76
2021/06/05 05:41:41;;;;;;;;;;;17.10;99.90;;;;;;5116591;28;19903;-75
2021/06/05 05:44:06;;;;;;;;;;;17.00;99.90;;;;;;5116309;28;19911;-76
2021/06/05 05:46:33;;;;;;;;;;;17.10;99.90;;;;;;5115696;28;19912;-74
2021/06/05 05:48:59;;;;;;;;;;;17.10;99.90;;;;;;5116470;28;20022;-74
2021/06/05 05:51:25;;;;;;;;;;;17.10;99.90;;;;;;5116354;28;19907;-76
2021/06/05 05:53:51;;;;;;;;;;;17.10;99.90;;;;;;5115511;28;19964;-76
2021/06/05 05:56:17;;;;;;;;;;;17.20;99.90;;;;;;5116351;28;19964;-76
2021/06/05 05:58:45;;;;;;;;;;;17.30;99.90;;;;;;5115933;28;19926;-77
2021/06/05 06:01:11;;;;;;;;;;;17.30;99.90;;;;;;5115566;28;19904;-76
2021/06/05 06:03:37;;;;;;;;;;;17.30;99.90;;;;;;5116198;28;19903;-76
2021/06/05 06:06:05;;;;;;;;;;;17.30;99.90;;;;;;5115847;28;20386;-76
2021/06/05 06:08:31;;;;;;;;;;;17.30;99.90;;;;;;5115684;28;19965;-76
2021/06/05 06:10:56;;;;;;;;;;;17.40;99.90;;;;;;5115875;28;20335;-76
2021/06/05 06:13:22;;;;;;;;;;;17.40;99.90;;;;;;5116046;28;20053;-76
2021/06/05 06:15:47;;;;;;;;;;;17.70;99.90;;;;;;5115200;28;19904;-76
2021/06/05 06:18:13;;;;;;;;;;;17.30;99.90;;;;;;5115933;28;19995;-76
2021/06/05 06:20:40;;;;;;;;;;;17.40;99.90;;;;;;5115781;28;20271;-76
2021/06/05 06:23:06;;;;;;;;;;;17.40;99.90;;;;;;5114687;28;19911;-76
2021/06/05 06:25:33;;;;;;;;;;;17.30;99.90;;;;;;5115500;28;19904;-74
2021/06/05 06:27:59;;;;;;;;;;;17.30;99.90;;;;;;5114673;28;19912;-76
2021/06/05 06:30:27;;;;;;;;;;;17.30;99.90;;;;;;5115565;28;19931;-75
2021/06/05 06:32:52;;;;;;;;;;;17.30;99.90;;;;;;5115430;28;20365;-76
2021/06/05 06:35:19;;;;;;;;;;;17.30;99.90;;;;;;5114693;28;19998;-76
2021/06/05 06:37:44;;;;;;;;;;;17.30;99.90;;;;;;5115330;28;19907;-76
2021/06/05 06:40:12;;;;;;;;;;;17.30;99.90;;;;;;5115403;28;20267;-76
2021/06/05 06:42:37;;;;;;;;;;;17.40;99.90;;;;;;5114621;28;19911;-76
2021/06/05 06:45:03;;;;;;;;;;;17.40;99.90;;;;;;5115060;28;20018;-76
2021/06/05 06:47:29;;;;;;;;;;;17.40;99.90;;;;;;5115295;28;19915;-76
2021/06/05 06:49:54;;;;;;;;;;;17.40;99.90;;;;;;5114282;28;19908;-75
2021/06/05 06:52:24;;;;;;;;;;;17.40;99.90;;;;;;5115376;28;19938;-75
2021/06/05 06:54:51;;;;;;;;;;;17.50;99.90;;;;;;5115032;28;19903;-75
2021/06/05 06:57:17;;;;;;;;;;;17.60;99.90;;;;;;5114464;28;19911;-75
2021/06/05 06:59:42;;;;;;;;;;;17.70;99.90;;;;;;5115179;28;19903;-75
2021/06/05 07:02:11;;;;;;;;;;;17.80;99.90;;;;;;5115081;28;19916;-76
2021/06/05 07:04:36;;;;;;;;;;;17.80;99.90;;;;;;5114334;28;20434;-75
2021/06/05 07:07:02;;;;;;;;;;;17.90;99.90;;;;;;5114937;28;19947;-76
2021/06/05 07:09:29;;;;;;;;;;;17.90;99.90;;;;;;5114578;28;19908;-75
2021/06/05 07:11:54;;;;;;;;;;;17.90;99.90;;;;;;5114380;28;20014;-75
2021/06/05 07:14:20;;;;;;;;;;;17.90;99.90;;;;;;5114881;28;19942;-76
2021/06/05 07:16:45;;;;;;;;;;;17.90;99.90;;;;;;5114765;28;19904;-75
2021/06/05 07:19:10;;;;;;;;;;;17.80;99.90;;;;;;5114367;28;19904;-76
2021/06/05 07:21:36;;;;;;;;;;;17.80;99.90;;;;;;5114753;28;19994;-76
2021/06/05 07:24:02;;;;;;;;;;;17.80;99.90;;;;;;5115574;28;19903;-76
2021/06/05 07:26:28;;;;;;;;;;;17.70;99.90;;;;;;5114012;28;19919;-76
2021/06/05 07:28:58;;;;;;;;;;;17.70;99.90;;;;;;5114462;28;19904;-76
2021/06/05 07:31:26;;;;;;;;;;;17.70;99.90;;;;;;5113844;28;20002;-76
2021/06/05 07:33:52;;;;;;;;;;;17.60;99.90;;;;;;5113934;28;19980;-76
2021/06/05 07:36:22;;;;;;;;;;;17.70;99.90;;;;;;5114138;28;19962;-77
2021/06/05 07:38:47;;;;;;;;;;;17.60;99.90;;;;;;5113364;28;20282;-76
2021/06/05 07:41:13;;;;;;;;;;;17.50;99.90;;;;;;5114156;28;19998;-76
2021/06/05 07:43:39;;;;;;;;;;;17.50;99.90;;;;;;5114456;28;19939;-76
2021/06/05 07:46:05;;;;;;;;;;;17.60;99.90;;;;;;5113273;28;19998;-76
2021/06/05 07:48:31;;;;;;;;;;;17.50;99.90;;;;;;5114420;28;19908;-77
2021/06/05 07:50:57;;;;;;;;;;;17.50;99.90;;;;;;5114667;28;19904;-76
2021/06/05 07:53:22;;;;;;;;;;;17.50;99.90;;;;;;5113820;28;19904;-77
2021/06/05 07:55:48;;;;;;;;;;;17.50;99.90;;;;;;5114412;28;19907;-75
2021/06/05 07:58:13;;;;;;;;;;;17.50;99.90;;;;;;5114845;28;19945;-76
2021/06/05 08:00:39;;;;;;;;;;;17.50;99.90;;;;;;5113469;28;19910;-76
2021/06/05 08:03:06;;;;;;;;;;;17.40;99.90;;;;;;5114442;28;19954;-76
2021/06/05 08:05:32;;;;;;;;;;;17.50;99.90;;;;;;5113836;28;20385;-76
2021/06/05 08:07:57;;;;;;;;;;;17.60;99.90;;;;;;5113407;28;19912;-76
2021/06/05 08:10:23;;;;;;;;;;;17.70;99.90;;;;;;5113959;28;20362;-75
2021/06/05 08:12:49;;;;;;;;;;;17.70;99.90;;;;;;5114077;28;19948;-75
2021/06/05 08:15:15;;;;;;;;;;;17.90;99.90;;;;;;5113119;28;19927;-76
2021/06/05 08:17:41;;;;;;;;;;;17.90;99.90;;;;;;5114011;28;19911;-76
2021/06/05 08:20:09;;;;;;;;;;;17.90;99.90;;;;;;5113978;28;19911;-76
2021/06/05 08:22:35;;;;;;;;;;;18.00;99.90;;;;;;5113132;28;19942;-76
2021/06/05 08:25:00;;;;;;;;;;;17.90;99.90;;;;;;5113983;28;20344;-75
2021/06/05 08:27:26;;;;;;;;;;;17.90;99.90;;;;;;5113394;28;19911;-74
2021/06/05 08:29:53;;;;;;;;;;;17.90;99.90;;;;;;5114180;28;19974;-75
2021/06/05 08:32:18;;;;;;;;;;;17.90;99.90;;;;;;5113879;28;19904;-75
2021/06/05 08:34:43;;;;;;;;;;;17.90;99.90;;;;;;5112257;28;19911;-75
2021/06/05 08:37:09;;;;;;;;;;;17.90;99.90;;;;;;5113702;28;20038;-78
2021/06/05 08:39:34;;;;;;;;;;;17.80;99.90;;;;;;5113646;28;19936;-75
2021/06/05 08:42:01;;;;;;;;;;;17.80;99.90;;;;;;5113130;28;19903;-75
2021/06/05 08:44:35;;;;;;;;;;;17.70;99.90;;;;;;5113706;28;20380;-75
2021/06/05 08:47:18;;;;;;;;;;;17.70;99.90;;;;;;5116930;28;19911;-76
2021/06/05 08:49:45;;;;;;;;;;;17.60;99.90;;;;;;5116964;28;19933;-76
2021/06/05 08:52:28;;;;;;;;;;;17.50;99.90;;;;;;5117780;28;19908;-75
2021/06/05 08:55:00;;;;;;;;;;;17.50;99.90;;;;;;5117821;28;19903;-77
2021/06/05 08:57:46;;;;;;;;;;;17.40;99.90;;;;;;5116847;28;20075;-75
2021/06/05 09:00:18;;;;;;;;;;;17.40;99.90;;;;;;5118120;28;20303;-75
2021/06/05 09:02:44;;;;;;;;;;;17.40;99.90;;;;;;5117079;28;19904;-74
2021/06/05 09:05:12;;;;;;;;;;;17.50;99.90;;;;;;5117507;28;20335;-75
2021/06/05 09:07:38;;;;;;;;;;;17.50;99.90;;;;;;5117520;28;19918;-75
2021/06/05 09:10:07;;;;;;;;;;;17.50;99.90;;;;;;5116496;28;19904;-75
2021/06/05 09:12:33;;;;;;;;;;;17.50;99.90;;;;;;5117516;28;20312;-75
2021/06/05 09:14:59;;;;;;;;;;;17.50;99.90;;;;;;5117155;28;19903;-74
2021/06/05 09:17:30;;;;;;;;;;;17.50;99.90;;;;;;5116909;28;19907;-75
2021/06/05 09:19:58;;;;;;;;;;;17.50;99.90;;;;;;5117718;28;19919;-75
2021/06/05 09:22:29;;;;;;;;;;;17.50;99.90;;;;;;5117353;28;19911;-75
2021/06/05 09:24:54;;;;;;;;;;;17.50;99.90;;;;;;5116588;28;19927;-75
2021/06/05 09:27:30;;;;;;;;;;;17.50;99.90;;;;;;5117236;28;19916;-75
2021/06/05 09:30:02;;;;;;;;;;;17.60;99.90;;;;;;5117356;28;19907;-75
2021/06/05 09:32:30;;;;;;;;;;;17.60;99.90;;;;;;5116397;28;19908;-76
2021/06/05 09:35:04;;;;;;;;;;;17.70;99.90;;;;;;5117148;28;19914;-76
2021/06/05 09:37:37;;;;;;;;;;;17.70;99.90;;;;;;5117182;28;19914;-75
2021/06/05 09:40:06;;;;;;;;;;;17.80;99.90;;;;;;5116597;28;19935;-75
2021/06/05 09:42:33;;;;;;;;;;;17.80;99.90;;;;;;5117062;28;19904;-75
2021/06/05 09:44:59;;;;;;;;;;;17.80;99.90;;;;;;5115927;28;19916;-75
2021/06/05 09:47:27;;;;;;;;;;;17.80;99.90;;;;;;5116668;28;19923;-76
2021/06/05 09:49:58;;;;;;;;;;;17.70;99.90;;;;;;5117131;28;19904;-75
2021/06/05 09:52:24;;;;;;;;;;;17.70;99.90;;;;;;5116047;28;19904;-76
2021/06/05 09:54:50;;;;;;;;;;;17.80;99.90;;;;;;5116383;28;19903;-75
2021/06/05 09:57:28;;;;;;;;;;;18.00;99.90;;;;;;5116006;28;19904;-76
2021/06/05 09:59:58;;;;;;;;;;;18.10;99.90;;;;;;5115768;28;19955;-75
2021/06/05 10:02:24;;;;;;;;;;;18.40;99.90;;;;;;5116361;28;19957;-76
2021/06/05 10:05:08;;;;;;;;;;;18.60;99.90;;;;;;5116257;28;19903;-76
2021/06/05 10:07:33;;;;;;;;;;;18.80;99.90;;;;;;5115678;28;19973;-76
2021/06/05 10:09:59;;;;;;;;;;;18.80;99.90;;;;;;5116197;28;19932;-75
2021/06/05 10:12:26;;;;;;;;;;;18.70;99.90;;;;;;5116567;28;19911;-76
2021/06/05 10:15:01;;;;;;;;;;;18.80;99.90;;;;;;5115366;28;19910;-76
2021/06/05 10:17:53;;;;;;;;;;;18.70;99.90;;;;;;5116159;28;19911;-74
2021/06/05 10:20:19;;;;;;;;;;;18.70;99.90;;;;;;5112240;28;19942;-75
2021/06/05 10:22:45;;;;;;;;;;;18.80;99.90;;;;;;5116011;28;20367;-76
2021/06/05 10:25:16;;;;;;;;;;;18.80;99.90;;;;;;5115970;28;19904;-76
2021/06/05 10:27:42;;;;;;;;;;;18.90;99.90;;;;;;5115318;28;20356;-76
2021/06/05 10:30:30;;;;;;;;;;;18.90;99.90;;;;;;5116118;28;19904;-76
2021/06/05 10:32:57;;;;;;;;;;;19.10;99.90;;;;;;5115869;28;20271;-76
2021/06/05 10:35:39;;;;;;;;;;;19.40;99.90;;;;;;5114783;28;19998;-76
2021/06/05 10:38:09;;;;;;;;;;;19.50;99.90;;;;;;5115867;28;19910;-76
2021/06/05 10:40:35;;;;;;;;;;;19.70;99.90;;;;;;5115688;28;19908;-75
2021/06/05 10:43:03;;;;;;;;;;;19.80;99.90;;;;;;5115161;28;19991;-75
2021/06/05 10:45:30;;;;;;;;;;;19.90;99.90;;;;;;5115489;28;20422;-75
2021/06/05 10:48:02;;;;;;;;;;;19.90;99.90;;;;;;5115565;28;19962;-74
2021/06/05 10:50:29;;;;;;;;;;;20.00;99.90;;;;;;5114907;28;19915;-76
2021/06/05 10:52:58;;;;;;;;;;;20.00;99.90;;;;;;5115752;28;20002;-75
2021/06/05 10:55:25;;;;;;;;;;;19.90;99.90;;;;;;5114575;28;20014;-76
2021/06/05 10:58:10;;;;;;;;;;;19.80;99.90;;;;;;5115609;28;19904;-75
2021/06/05 11:00:41;;;;;;;;;;;19.80;99.90;;;;;;5115520;28;19908;-77
2021/06/05 11:03:07;;;;;;;;;;;19.70;99.90;;;;;;5114756;28;19910;-75
2021/06/05 11:05:34;;;;;;;;;;;19.70;99.90;;;;;;5115303;28;19911;-75
2021/06/05 11:08:10;;;;;;;;;;;19.80;99.90;;;;;;5115122;28;19918;-74
2021/06/05 11:10:46;;;;;;;;;;;19.80;99.90;;;;;;5113420;28;19907;-75
2021/06/05 11:13:31;;;;;;;;;;;20.00;99.90;;;;;;5114990;28;19952;-75
2021/06/05 11:16:00;;;;;;;;;;;20.30;99.90;;;;;;5114882;28;19923;-75
2021/06/05 11:18:27;;;;;;;;;;;20.60;99.90;;;;;;5114202;28;20340;-75
2021/06/05 11:20:53;;;;;;;;;;;20.70;99.90;;;;;;5115293;28;19903;-75
2021/06/05 11:23:19;;;;;;;;;;;20.90;99.90;;;;;;5114910;28;19911;-75
2021/06/05 11:25:47;;;;;;;;;;;21.10;99.90;;;;;;5114992;28;19908;-75
2021/06/05 11:28:31;;;;;;;;;;;21.20;99.90;;;;;;5114646;28;19912;-75
2021/06/05 11:30:57;;;;;;;;;;;21.40;99.90;;;;;;5113997;28;19954;-76
2021/06/05 11:33:39;;;;;;;;;;;21.40;99.90;;;;;;5114926;28;19911;-75
2021/06/05 11:36:24;;;;;;;;;;;21.40;99.90;;;;;;5114088;28;19903;-75
2021/06/05 11:38:50;;;;;;;;;;;21.40;99.90;;;;;;5112779;28;19904;-75
2021/06/05 11:41:39;;;;;;;;;;;21.30;99.90;;;;;;5114256;28;20370;-75
2021/06/05 11:44:18;;;;;;;;;;;21.20;99.90;;;;;;5105775;28;20393;-74
2021/06/05 11:46:45;;;;;;;;;;;21.10;99.90;;;;;;5113207;28;20345;-75
2021/06/05 11:49:30;;;;;;;;;;;21.10;99.90;;;;;;5114207;28;19931;-75
2021/06/05 11:52:16;;;;;;;;;;;21.10;99.90;;;;;;5113267;28;19903;-76
2021/06/05 11:54:41;;;;;;;;;;;21.10;99.90;;;;;;5113838;28;19911;-75
2021/06/05 11:57:12;;;;;;;;;;;21.00;99.90;;;;;;5114262;28;19904;-75
2021/06/05 11:59:39;;;;;;;;;;;21.00;99.90;;;;;;5113202;28;19915;-75
2021/06/05 12:02:31;;;;;;;;;;;21.00;99.90;;;;;;5114387;28;19939;-75
2021/06/05 12:05:07;;;;;;;;;;;20.80;99.90;;;;;;5110469;28;19911;-75
2021/06/05 12:07:37;;;;;;;;;;;20.70;99.90;;;;;;5113120;28;20391;-75
2021/06/05 12:10:06;;;;;;;;;;;20.50;99.90;;;;;;5114139;28;19986;-75
2021/06/05 12:12:33;;;;;;;;;;;20.50;99.90;;;;;;5112813;28;19944;-76
2021/06/05 12:15:19;;;;;;;;;;;20.40;99.90;;;;;;5114139;28;19949;-76
2021/06/05 12:17:53;;;;;;;;;;;20.50;99.90;;;;;;5114235;28;19914;-76
2021/06/05 12:20:18;;;;;;;;;;;20.60;99.90;;;;;;5113157;28;19904;-74
2021/06/05 12:22:45;;;;;;;;;;;20.70;99.90;;;;;;5113822;28;19911;-75
2021/06/05 12:25:28;;;;;;;;;;;20.70;99.90;;;;;;5114002;28;19904;-75
2021/06/05 12:28:05;;;;;;;;;;;20.70;99.90;;;;;;5112733;28;19916;-75
2021/06/05 12:30:31;;;;;;;;;;;20.60;99.90;;;;;;5113614;28;19908;-75
2021/06/05 12:33:03;;;;;;;;;;;20.60;99.90;;;;;;5113761;28;19986;-75
2021/06/05 12:35:33;;;;;;;;;;;20.40;99.90;;;;;;5113064;28;20342;-76
2021/06/05 12:38:00;;;;;;;;;;;20.50;99.90;;;;;;5095423;28;19904;-75
2021/06/05 12:40:41;;;;;;;;;;;20.40;99.90;;;;;;5113772;28;19991;-76
2021/06/05 12:43:08;;;;;;;;;;;20.40;99.90;;;;;;5113666;28;19904;-74
2021/06/05 12:45:35;;;;;;;;;;;20.40;99.90;;;;;;5113366;28;19915;-74
2021/06/05 12:48:01;;;;;;;;;;;20.30;99.90;;;;;;5112552;28;19963;-75
2021/06/05 12:50:29;;;;;;;;;;;20.20;99.90;;;;;;5113370;28;19908;-75
2021/06/05 12:52:56;;;;;;;;;;;20.20;99.90;;;;;;5113411;28;19950;-76
2021/06/05 12:55:24;;;;;;;;;;;20.10;99.90;;;;;;5112413;28;19998;-75
2021/06/05 12:57:55;;;;;;;;;;;20.00;99.90;;;;;;5113456;28;19904;-75
2021/06/05 13:00:21;;;;;;;;;;;20.00;99.90;;;;;;5113304;28;19939;-74
2021/06/05 13:03:05;;;;;;;;;;;19.90;99.90;;;;;;5112563;28;19927;-74
2021/06/05 13:05:35;;;;;;;;;;;19.80;99.90;;;;;;5113028;28;19910;-75
2021/06/05 13:08:20;;;;;;;;;;;19.70;99.90;;;;;;5113154;28;19918;-74
2021/06/05 13:10:53;;;;;;;;;;;19.60;99.90;;;;;;5112171;28;19971;-75
2021/06/05 13:13:24;;;;;;;;;;;19.60;99.90;;;;;;5113295;28;20006;-75
2021/06/05 13:15:54;;;;;;;;;;;19.40;99.90;;;;;;5112817;28;20005;-75
2021/06/05 13:18:24;;;;;;;;;;;19.40;99.90;;;;;;5113321;28;19911;-75
2021/06/05 13:20:52;;;;;;;;;;;19.20;99.90;;;;;;5112933;28;19926;-75
2021/06/05 13:23:18;;;;;;;;;;;19.20;99.90;;;;;;5112262;28;19904;-75
2021/06/05 13:25:44;;;;;;;;;;;19.10;99.90;;;;;;5113042;28;19903;-75
2021/06/05 13:28:11;;;;;;;;;;;19.10;99.90;;;;;;5113049;28;19912;-76
2021/06/05 13:30:39;;;;;;;;;;;19.00;99.90;;;;;;5112261;28;19918;-75
2021/06/05 13:33:23;;;;;;;;;;;18.90;99.90;;;;;;5115045;28;19939;-75
2021/06/05 13:35:49;;;;;;;;;;;18.90;99.90;;;;;;5116685;28;20274;-76
2021/06/05 13:38:17;;;;;;;;;;;18.80;99.90;;;;;;5115971;28;19908;-76
2021/06/05 13:40:42;;;;;;;;;;;18.70;99.90;;;;;;5117028;28;20248;-76
2021/06/05 13:43:08;;;;;;;;;;;18.60;99.90;;;;;;5116872;28;19903;-74
2021/06/05 13:45:34;;;;;;;;;;;18.40;99.90;;;;;;5115537;28;19916;-75
2021/06/05 13:48:04;;;;;;;;;;;18.30;99.90;;;;;;5116633;28;19912;-76
2021/06/05 13:50:30;;;;;;;;;;;18.30;99.90;;;;;;5116576;28;19916;-75
2021/06/05 13:53:06;;;;;;;;;;;18.30;99.90;;;;;;5115501;28;20351;-76
2021/06/05 13:55:32;;;;;;;;;;;18.30;99.90;;;;;;5116019;28;19904;-75
2021/06/05 13:57:58;;;;;;;;;;;18.30;99.90;;;;;;5116555;28;19910;-74
2021/06/05 14:00:24;;;;;;;;;;;18.30;99.90;;;;;;5116065;28;19992;-75
2021/06/05 14:02:50;;;;;;;;;;;18.30;99.90;;;;;;5116209;28;20371;-76
2021/06/05 14:05:16;;;;;;;;;;;18.30;99.90;;;;;;5115439;28;19935;-74
2021/06/05 14:07:42;;;;;;;;;;;18.50;99.90;;;;;;5116039;28;20306;-75
2021/06/05 14:10:07;;;;;;;;;;;17.80;99.90;;;;;;5115787;28;19907;-75
2021/06/05 14:12:33;;;;;;;;;;;18.60;99.90;;;;;;5115288;28;19908;-75
2021/06/05 14:14:59;;;;;;;;;;;18.70;99.90;;;;;;5115895;28;19974;-74
2021/06/05 14:17:25;;;;;;;;;;;18.90;99.90;;;;;;5115755;28;19907;-75
2021/06/05 14:19:51;;;;;;;;;;;18.80;99.90;;;;;;5115140;28;19910;-75
2021/06/05 14:22:17;;;;;;;;;;;18.80;99.90;;;;;;5115643;28;19904;-75